EST,Max TemperatureF,Mean TemperatureF,Min TemperatureF,Max Dew PointF,MeanDew PointF,Min DewpointF,Max Humidity, Mean Humidity, Min Humidity, Max Sea Level PressureIn, Mean Sea Level PressureIn, Min Sea Level PressureIn, Max VisibilityMiles, Mean VisibilityMiles, Min VisibilityMiles, Max Wind SpeedMPH, Mean Wind SpeedMPH, Max Gust SpeedMPH,PrecipitationIn, CloudCover, Events, WindDirDegrees
2013-12-1,42,34,26,32,28,25,96,81,55,30.11,30.06,30.02,10,6,4,7,2,,0.00,4,,40
2013-12-2,39,32,24,29,27,24,100,83,60,30.00,29.91,29.84,9,5,2,14,4,,0.00,5,,101
2013-12-3,46,40,33,46,37,30,100,94,87,29.83,29.77,29.72,5,2,2,14,10,,0.17,8,Rain,122
2013-12-4,57,50,44,54,49,44,100,96,83,29.79,29.67,29.56,6,3,1,18,8,24,0.00,8,,146
2013-12-5,55,42,28,52,26,18,90,76,64,30.23,29.96,29.59,10,10,4,24,17,32,0.00,7,,268
2013-12-6,28,26,23,19,15,10,72,68,59,30.46,30.35,30.22,10,10,9,9,7,16,0.00,8,,309
2013-12-7,23,19,15,14,11,9,84,70,62,30.67,30.58,30.44,10,7,1,12,7,18,0.00,8,Snow,301
2013-12-8,24,20,15,25,17,11,100,84,65,30.60,30.22,29.96,10,4,0,13,7,18,0.11,7,Fog-Snow,99
2013-12-9,28,22,15,25,18,8,100,80,65,30.20,30.04,29.89,10,7,2,28,13,36,0.00,7,Snow,245
2013-12-10,23,13,3,15,9,-4,92,75,63,30.28,30.09,29.99,10,6,0,30,16,38,0.00,8,Fog-Snow,240
2013-12-11,23,18,12,19,15,4,93,80,61,30.51,30.33,30.24,10,3,0,18,13,26,0.02,8,Fog-Snow,293
2013-12-12,25,13,1,19,6,-6,85,74,58,30.52,30.39,30.24,10,8,2,23,14,29,0.00,7,Snow,238
2013-12-13,30,22,15,21,16,12,86,77,69,30.23,30.20,30.17,10,7,6,17,8,,0.00,4,,144
2013-12-14,26,22,19,23,19,17,93,89,80,30.18,30.01,29.88,10,2,0,15,11,24,0.04,8,Fog-Snow,74
2013-12-15,28,22,17,23,15,9,88,76,63,30.10,29.97,29.87,10,7,1,21,12,29,0.00,8,Snow,281
2013-12-16,21,16,12,16,13,8,93,82,63,30.18,30.08,30.01,10,5,1,10,5,,0.04,7,Snow,147
2013-12-17,32,26,19,27,22,16,100,85,64,30.04,29.96,29.90,10,5,0,22,12,29,0.02,8,Fog-Snow,247
2013-12-18,33,28,25,22,18,12,78,65,49,30.18,30.04,29.88,10,10,10,18,13,28,0.00,4,,226
2013-12-19,39,37,35,36,33,26,100,85,67,29.95,29.89,29.83,10,7,0,18,9,25,0.02,5,Fog,172
2013-12-20,39,36,33,39,35,33,100,100,96,29.81,29.76,29.70,7,2,0,7,3,,0.33,8,Fog-Rain,95
2013-12-21,35,34,32,35,33,30,100,98,93,29.85,29.78,29.64,10,4,0,14,2,22,0.33,8,Fog-Rain,47
2013-12-22,35,32,30,34,31,27,100,97,85,30.04,29.77,29.57,10,5,0,12,5,17,0.18,8,Fog-Snow,278
2013-12-23,30,20,10,27,15,8,93,84,72,30.41,30.31,30.07,10,4,1,20,15,25,0.01,8,Snow,260
2013-12-24,15,10,6,11,8,5,96,86,74,30.55,30.46,30.36,10,3,0,17,11,20,0.01,7,Fog-Snow,201
2013-12-25,27,20,14,25,20,10,100,87,68,30.44,30.19,30.06,10,4,0,16,9,23,0.06,8,Fog-Snow,196
2013-12-26,33,28,24,27,21,17,93,82,69,30.29,30.17,30.05,10,7,1,23,16,26,0.00,8,Snow,248
2013-12-27,41,32,26,30,29,27,100,84,65,30.31,30.23,30.09,10,7,0,18,7,31,0.00,5,Fog,208
2013-12-28,46,41,36,34,32,30,82,72,61,30.11,30.02,29.88,10,10,10,22,14,34,0.00,0,,206
2013-12-29,37,29,21,34,26,12,93,83,68,30.12,29.89,29.77,10,8,1,14,9,26,0.00,6,Snow,307
2013-12-30,21,18,15,14,11,9,93,77,62,30.31,30.20,30.09,10,5,0,15,9,20,0.02,8,Fog-Snow,253
2013-12-31,17,14,12,16,11,9,100,84,77,30.36,30.23,30.12,7,2,0,20,14,25,0.13,8,Fog-Snow,252